createdAt,value
2023-03-10T00:01:33.996Z,91.50
2023-03-10T00:04:02.401Z,91.60
2023-03-10T00:06:33.649Z,91.90
2023-03-10T00:09:00.567Z,91.50
2023-03-10T00:11:27.597Z,91.90
2023-03-10T00:13:54.502Z,91.60
2023-03-10T00:16:27.469Z,91.60
2023-03-10T00:18:54.656Z,91.60
2023-03-10T00:21:24.640Z,91.60
2023-03-10T00:23:54.822Z,91.50
2023-03-10T00:26:22.633Z,91.50
2023-03-10T00:28:50.046Z,91.60
2023-03-10T00:31:20.115Z,91.50
2023-03-10T00:33:47.092Z,91.60
2023-03-10T00:36:34.242Z,91.60
2023-03-10T00:39:01.551Z,91.50
2023-03-10T00:41:36.526Z,91.60
2023-03-10T00:44:03.879Z,91.60
2023-03-10T00:46:34.262Z,92.00
2023-03-10T00:49:01.073Z,91.60
2023-03-10T00:51:28.166Z,91.60
2023-03-10T00:54:00.906Z,91.60
2023-03-10T00:56:28.329Z,91.60
2023-03-10T00:58:57.994Z,91.60
2023-03-10T01:01:40.750Z,91.60
2023-03-10T01:04:12.006Z,91.60
2023-03-10T01:06:39.465Z,91.60
2023-03-10T01:09:06.855Z,91.60
2023-03-10T01:11:34.578Z,91.60
2023-03-10T01:14:06.960Z,91.60
2023-03-10T01:16:34.853Z,91.60
2023-03-10T01:19:01.939Z,91.60
2023-03-10T01:21:34.285Z,91.60
2023-03-10T01:24:01.782Z,91.60
2023-03-10T01:26:29.640Z,91.60
2023-03-10T01:28:56.656Z,91.60
2023-03-10T01:31:23.777Z,91.60
2023-03-10T01:33:50.678Z,92.00
2023-03-10T01:36:23.812Z,91.60
2023-03-10T01:38:50.728Z,91.60
2023-03-10T01:41:17.972Z,91.60
2023-03-10T01:43:50.337Z,91.60
2023-03-10T01:46:42.040Z,91.70
2023-03-10T01:49:20.150Z,91.60
2023-03-10T01:51:55.546Z,92.00
2023-03-10T01:54:27.295Z,91.60
2023-03-10T01:56:55.800Z,91.70
2023-03-10T01:59:23.763Z,91.70
2023-03-10T02:01:52.549Z,91.70
2023-03-10T02:04:34.022Z,91.70
2023-03-10T02:07:03.796Z,91.60
2023-03-10T02:09:32.686Z,92.00
2023-03-10T02:12:00.638Z,91.70
2023-03-10T02:14:33.992Z,91.70
2023-03-10T02:17:00.696Z,91.70
2023-03-10T02:19:42.217Z,91.70
2023-03-10T02:22:12.430Z,91.70
2023-03-10T02:24:58.584Z,91.70
2023-03-10T02:27:29.075Z,91.70
2023-03-10T02:30:11.268Z,91.70
2023-03-10T02:32:45.177Z,91.60
2023-03-10T02:35:12.606Z,91.70
2023-03-10T02:37:39.818Z,91.70
2023-03-10T02:40:34.127Z,91.70
2023-03-10T02:43:33.357Z,91.70
2023-03-10T02:46:03.631Z,91.70
2023-03-10T02:48:33.832Z,91.70
2023-03-10T02:51:04.429Z,91.70
2023-03-10T02:53:31.126Z,91.70
2023-03-10T02:55:59.802Z,91.80
2023-03-10T02:58:28.523Z,91.80
2023-03-10T03:00:55.811Z,91.80
2023-03-10T03:03:26.089Z,91.80
2023-03-10T03:05:53.041Z,91.80
2023-03-10T03:08:20.011Z,91.80
2023-03-10T03:10:47.097Z,91.80
2023-03-10T03:13:14.110Z,91.80
2023-03-10T03:15:41.131Z,91.80
2023-03-10T03:18:07.992Z,91.80
2023-03-10T03:20:38.585Z,91.80
2023-03-10T03:23:05.419Z,91.80
2023-03-10T03:25:35.706Z,91.80
2023-03-10T03:28:02.774Z,91.90
2023-03-10T03:30:33.514Z,91.90
2023-03-10T03:33:02.259Z,91.90
2023-03-10T03:35:32.013Z,91.90
2023-03-10T03:37:59.256Z,91.90
2023-03-10T03:40:27.722Z,91.90
2023-03-10T03:42:55.061Z,91.90
2023-03-10T03:45:25.214Z,91.90
2023-03-10T03:47:52.605Z,91.90
2023-03-10T03:50:21.302Z,91.90
2023-03-10T03:52:48.134Z,91.90
2023-03-10T03:55:17.702Z,91.90
2023-03-10T03:57:45.524Z,91.90
2023-03-10T04:00:20.615Z,91.90
2023-03-10T04:02:47.697Z,91.90
2023-03-10T04:05:14.612Z,92.20
2023-03-10T04:07:42.674Z,91.90
2023-03-10T04:10:15.261Z,91.90
2023-03-10T04:12:42.185Z,91.90
2023-03-10T04:15:09.678Z,91.90
2023-03-10T04:17:36.889Z,91.90
2023-03-10T04:20:09.349Z,91.90
2023-03-10T04:22:36.880Z,91.90
2023-03-10T04:25:06.336Z,92.00
2023-03-10T04:27:33.518Z,92.00
2023-03-10T04:30:00.271Z,92.00
2023-03-10T04:32:27.601Z,92.00
2023-03-10T04:34:57.302Z,92.00
2023-03-10T04:37:24.157Z,92.00
2023-03-10T04:39:50.964Z,92.00
2023-03-10T04:42:17.858Z,92.00
2023-03-10T04:44:44.855Z,92.00
2023-03-10T04:47:11.565Z,92.00
2023-03-10T04:49:39.020Z,92.00
2023-03-10T04:52:06.196Z,92.00
2023-03-10T04:54:33.254Z,92.10
2023-03-10T04:57:03.170Z,92.10
2023-03-10T04:59:29.879Z,92.10
2023-03-10T05:01:56.756Z,92.10
2023-03-10T05:04:23.530Z,92.10
2023-03-10T05:06:51.815Z,92.10
2023-03-10T05:09:19.102Z,92.00
2023-03-10T05:11:46.061Z,92.30
2023-03-10T05:14:16.871Z,92.00
2023-03-10T05:16:43.995Z,92.00
2023-03-10T05:19:10.701Z,92.10
2023-03-10T05:21:37.424Z,92.10
2023-03-10T05:24:07.417Z,92.10
2023-03-10T05:26:34.976Z,92.10
2023-03-10T05:29:01.949Z,92.00
2023-03-10T05:31:29.060Z,92.00
2023-03-10T05:33:56.149Z,92.10
2023-03-10T05:36:23.070Z,92.40
2023-03-10T05:38:50.828Z,92.10
2023-03-10T05:41:17.665Z,92.20
2023-03-10T05:43:44.511Z,92.20
2023-03-10T05:46:12.032Z,92.20
2023-03-10T05:48:39.236Z,92.20
2023-03-10T05:51:12.157Z,92.10
2023-03-10T05:53:39.775Z,92.10
2023-03-10T05:56:15.726Z,92.10
2023-03-10T05:58:43.005Z,92.20
2023-03-10T06:01:10.541Z,92.20
2023-03-10T06:03:38.136Z,92.20
2023-03-10T06:06:06.881Z,92.20
2023-03-10T06:08:34.139Z,92.20
2023-03-10T06:11:00.987Z,92.20
2023-03-10T06:13:27.831Z,92.20
2023-03-10T06:15:57.602Z,92.20
2023-03-10T06:18:25.301Z,92.20
2023-03-10T06:20:55.058Z,92.30
2023-03-10T06:23:23.169Z,92.30
2023-03-10T06:25:58.742Z,92.30
2023-03-10T06:28:26.719Z,92.30
2023-03-10T06:30:57.326Z,92.30
2023-03-10T06:33:25.359Z,92.30
2023-03-10T06:35:52.618Z,92.30
2023-03-10T06:38:20.452Z,92.30
2023-03-10T06:40:47.868Z,92.30
2023-03-10T06:43:14.809Z,92.30
2023-03-10T06:45:42.922Z,92.30
2023-03-10T06:48:10.246Z,92.30
2023-03-10T06:50:40.357Z,92.30
2023-03-10T06:53:07.198Z,92.30
2023-03-10T06:55:34.750Z,92.40
2023-03-10T06:58:01.431Z,92.40
2023-03-10T07:00:31.534Z,92.40
2023-03-10T07:02:58.839Z,92.50
2023-03-10T07:05:27.351Z,92.40
2023-03-10T07:07:55.386Z,92.50
2023-03-10T07:10:25.243Z,92.50
2023-03-10T07:12:55.314Z,92.50
2023-03-10T07:15:26.597Z,92.50
2023-03-10T07:17:56.119Z,92.50
2023-03-10T07:20:24.172Z,92.50
2023-03-10T07:22:51.109Z,92.50
2023-03-10T07:25:17.976Z,92.50
2023-03-10T07:27:44.771Z,92.60
2023-03-10T07:30:12.191Z,92.60
2023-03-10T07:32:50.919Z,92.60
2023-03-10T07:35:17.867Z,92.60
2023-03-10T07:37:44.584Z,92.60
2023-03-10T07:40:11.868Z,92.70
2023-03-10T07:42:38.572Z,92.60
2023-03-10T07:45:07.223Z,92.60
2023-03-10T07:47:34.070Z,92.70
2023-03-10T07:50:00.934Z,92.60
2023-03-10T07:52:29.185Z,92.70
2023-03-10T07:54:58.832Z,92.70
2023-03-10T07:57:25.589Z,92.70
2023-03-10T07:59:52.394Z,92.60
2023-03-10T08:02:19.236Z,92.70
2023-03-10T08:04:46.050Z,92.70
2023-03-10T08:07:12.932Z,92.70
2023-03-10T08:09:40.362Z,92.70
2023-03-10T08:12:07.971Z,92.70
2023-03-10T08:14:34.764Z,92.70
2023-03-10T08:17:01.481Z,92.80
2023-03-10T08:19:28.306Z,92.80
2023-03-10T08:21:56.557Z,92.70
2023-03-10T08:24:24.592Z,92.70
2023-03-10T08:26:51.520Z,92.80
2023-03-10T08:29:18.270Z,92.80
2023-03-10T08:31:45.135Z,92.80
2023-03-10T08:34:12.498Z,92.80
2023-03-10T08:36:40.262Z,92.80
2023-03-10T08:39:08.356Z,92.90
2023-03-10T08:41:38.463Z,92.90
2023-03-10T08:44:06.942Z,93.00
2023-03-10T08:46:34.873Z,93.00
2023-03-10T08:49:02.249Z,93.00
2023-03-10T08:51:31.983Z,93.10
2023-03-10T08:53:59.367Z,93.10
2023-03-10T08:56:26.211Z,93.10
2023-03-10T08:59:00.786Z,93.10
2023-03-10T09:01:30.116Z,93.10
2023-03-10T09:03:57.212Z,92.90
2023-03-10T09:06:24.398Z,92.90
2023-03-10T09:08:51.619Z,92.80
2023-03-10T09:11:21.768Z,92.80
2023-03-10T09:13:49.006Z,92.80
2023-03-10T09:16:16.794Z,92.80
2023-03-10T09:18:52.419Z,92.80
2023-03-10T09:21:20.150Z,92.80
2023-03-10T09:23:49.161Z,92.80
2023-03-10T09:26:16.040Z,92.80
2023-03-10T09:28:43.187Z,92.80
2023-03-10T09:31:15.658Z,92.90
2023-03-10T09:33:42.472Z,92.90
2023-03-10T09:36:09.475Z,92.90
2023-03-10T09:38:36.514Z,92.90
2023-03-10T09:41:09.464Z,93.00
2023-03-10T09:43:45.819Z,93.00
2023-03-10T09:46:20.621Z,93.10
2023-03-10T09:48:59.099Z,93.10
2023-03-10T09:51:28.864Z,93.20
2023-03-10T09:53:58.412Z,93.20
2023-03-10T09:56:36.255Z,93.30
2023-03-10T09:59:07.442Z,93.30
2023-03-10T10:01:34.573Z,92.70
2023-03-10T10:04:49.179Z,92.60
2023-03-10T10:07:20.528Z,92.50
2023-03-10T10:10:11.265Z,92.40
2023-03-10T10:12:38.290Z,92.40
2023-03-10T10:15:17.191Z,92.30
2023-03-10T10:17:55.039Z,92.30
2023-03-10T10:21:00.411Z,92.20
2023-03-10T10:23:49.154Z,92.20
2023-03-10T10:26:21.443Z,92.20
2023-03-10T10:28:58.157Z,92.30
2023-03-10T10:31:30.418Z,92.30
2023-03-10T10:33:58.477Z,92.30
2023-03-10T10:36:37.298Z,92.30
2023-03-10T10:39:20.670Z,92.60
2023-03-10T10:41:47.492Z,92.20
2023-03-10T10:44:17.229Z,92.10
2023-03-10T10:47:25.865Z,92.10
2023-03-10T10:49:53.635Z,91.90
2023-03-10T10:52:23.519Z,92.00
2023-03-10T10:54:58.708Z,92.10
2023-03-10T10:57:33.811Z,92.60
2023-03-10T11:00:13.901Z,92.50
2023-03-10T11:02:40.690Z,92.50
2023-03-10T11:05:19.063Z,92.50
2023-03-10T11:07:50.505Z,92.50
2023-03-10T11:10:19.990Z,92.50
2023-03-10T11:13:05.743Z,92.40
2023-03-10T11:15:51.804Z,92.30
2023-03-10T11:18:25.208Z,92.30
2023-03-10T11:21:02.294Z,92.20
2023-03-10T11:23:38.268Z,92.10
2023-03-10T11:26:08.265Z,92.20
2023-03-10T11:28:52.046Z,92.10
2023-03-10T11:31:56.680Z,92.10
2023-03-10T11:34:30.633Z,92.10
2023-03-10T11:37:26.272Z,92.20
2023-03-10T11:39:53.025Z,92.30
2023-03-10T11:42:31.221Z,92.40
2023-03-10T11:45:18.930Z,92.50
2023-03-10T11:48:03.433Z,92.50
2023-03-10T11:50:38.744Z,92.40
2023-03-10T11:53:27.095Z,92.40
2023-03-10T11:55:55.097Z,92.30
2023-03-10T11:58:33.176Z,92.20
2023-03-10T12:01:01.563Z,92.10
2023-03-10T12:03:50.714Z,92.00
2023-03-10T12:06:38.755Z,92.10
2023-03-10T12:09:07.627Z,92.00
2023-03-10T12:11:37.236Z,92.40
2023-03-10T12:14:04.186Z,92.40
2023-03-10T12:16:38.166Z,92.00
2023-03-10T12:19:07.867Z,92.00
2023-03-10T12:21:34.865Z,91.90
2023-03-10T12:24:05.487Z,91.90
2023-03-10T12:26:38.396Z,92.00
2023-03-10T12:29:20.202Z,92.00
2023-03-10T12:31:51.889Z,92.00
2023-03-10T12:34:28.710Z,92.10
2023-03-10T12:37:04.816Z,92.10
2023-03-10T12:39:37.942Z,92.20
2023-03-10T12:42:21.363Z,92.10
2023-03-10T12:45:08.766Z,92.10
2023-03-10T12:47:35.588Z,92.10
2023-03-10T12:50:22.927Z,92.10
2023-03-10T12:53:08.406Z,92.20
2023-03-10T12:55:35.449Z,92.20
2023-03-10T12:58:13.599Z,92.20
2023-03-10T13:00:50.926Z,92.20
2023-03-10T13:03:32.299Z,92.20
2023-03-10T13:06:11.250Z,92.10
2023-03-10T13:09:10.792Z,92.00
2023-03-10T13:12:18.365Z,91.90
2023-03-10T13:14:45.114Z,91.80
2023-03-10T13:17:32.987Z,91.90
2023-03-10T13:20:08.480Z,91.90
2023-03-10T13:22:40.791Z,91.90
2023-03-10T13:25:13.903Z,91.90
2023-03-10T13:27:41.097Z,92.00
2023-03-10T13:30:13.867Z,91.80
2023-03-10T13:32:41.487Z,91.90
2023-03-10T13:35:22.092Z,91.90
2023-03-10T13:38:07.752Z,91.90
2023-03-10T13:40:35.157Z,91.90
2023-03-10T13:43:02.470Z,91.90
2023-03-10T13:45:34.103Z,91.90
2023-03-10T13:48:04.451Z,91.90
2023-03-10T13:50:31.935Z,92.00
2023-03-10T13:53:00.247Z,91.90
2023-03-10T13:55:28.642Z,92.30
2023-03-10T13:57:56.675Z,91.90
2023-03-10T14:00:25.934Z,91.90
2023-03-10T14:02:57.041Z,91.90
2023-03-10T14:05:47.499Z,91.90
2023-03-10T14:08:33.120Z,91.80
2023-03-10T14:11:44.938Z,91.70
2023-03-10T14:14:13.218Z,91.70
2023-03-10T14:16:48.482Z,91.70
2023-03-10T14:19:38.022Z,91.60
2023-03-10T14:22:31.882Z,91.60
2023-03-10T14:25:05.880Z,91.50
2023-03-10T14:27:35.700Z,91.50
2023-03-10T14:30:10.438Z,91.50
2023-03-10T14:32:37.190Z,91.80
2023-03-10T14:35:11.091Z,91.40
2023-03-10T14:37:43.636Z,91.40
2023-03-10T14:40:11.083Z,91.30
2023-03-10T14:42:42.874Z,91.30
2023-03-10T14:45:29.931Z,91.20
2023-03-10T14:47:59.413Z,91.10
2023-03-10T14:50:28.518Z,91.20
2023-03-10T14:52:56.095Z,91.30
2023-03-10T14:55:22.950Z,91.10
2023-03-10T14:57:56.627Z,91.00
2023-03-10T15:00:26.476Z,91.10
2023-03-10T15:02:53.209Z,91.10
2023-03-10T15:05:22.522Z,91.20
2023-03-10T15:07:49.311Z,91.20
2023-03-10T15:10:20.013Z,91.20
2023-03-10T15:12:49.110Z,91.10
2023-03-10T15:15:18.588Z,91.10
2023-03-10T15:17:45.374Z,91.20
2023-03-10T15:20:24.210Z,91.20
2023-03-10T15:22:52.281Z,91.20
2023-03-10T15:25:21.337Z,91.30
2023-03-10T15:27:50.362Z,91.30
2023-03-10T15:30:24.038Z,91.30
2023-03-10T15:32:50.932Z,91.30
2023-03-10T15:35:18.098Z,91.30
2023-03-10T15:37:45.342Z,91.20
2023-03-10T15:40:16.214Z,91.30
2023-03-10T15:42:46.999Z,91.30
2023-03-10T15:45:15.154Z,91.30
2023-03-10T15:47:46.497Z,91.20
2023-03-10T15:50:15.627Z,91.20
2023-03-10T15:52:51.128Z,91.20
2023-03-10T15:55:18.024Z,91.10
2023-03-10T15:57:47.856Z,91.20
2023-03-10T16:00:16.909Z,91.20
2023-03-10T16:02:44.688Z,91.10
2023-03-10T16:05:12.054Z,91.20
2023-03-10T16:07:38.979Z,91.10
2023-03-10T16:10:06.250Z,91.20
2023-03-10T16:12:33.022Z,91.20
2023-03-10T16:14:59.752Z,91.20
2023-03-10T16:17:28.827Z,91.30
2023-03-10T16:19:55.880Z,91.20
2023-03-10T16:22:23.123Z,91.20
2023-03-10T16:24:49.971Z,91.20
2023-03-10T16:27:19.636Z,91.20
2023-03-10T16:29:46.569Z,91.30
2023-03-10T16:32:14.743Z,91.20
2023-03-10T16:34:41.453Z,91.30
2023-03-10T16:37:11.335Z,91.30
2023-03-10T16:39:38.186Z,91.20
2023-03-10T16:42:05.357Z,91.20
2023-03-10T16:44:32.065Z,91.30
2023-03-10T16:46:58.892Z,91.30
2023-03-10T16:49:25.625Z,91.30
2023-03-10T16:51:52.389Z,91.30
2023-03-10T16:54:22.814Z,91.30
2023-03-10T16:56:52.193Z,91.30
2023-03-10T16:59:26.544Z,91.20
2023-03-10T17:01:53.473Z,91.30
2023-03-10T17:04:23.022Z,91.30
2023-03-10T17:06:50.000Z,91.30
2023-03-10T17:09:20.546Z,91.20
2023-03-10T17:11:52.477Z,91.10
2023-03-10T17:14:21.312Z,91.10
2023-03-10T17:16:51.152Z,91.10
2023-03-10T17:19:29.064Z,91.00
2023-03-10T17:21:56.517Z,91.10
2023-03-10T17:24:23.863Z,91.10
2023-03-10T17:26:51.075Z,91.10
2023-03-10T17:29:18.144Z,91.10
2023-03-10T17:31:48.911Z,91.10
2023-03-10T17:34:16.237Z,91.10
2023-03-10T17:36:43.446Z,91.10
2023-03-10T17:39:18.124Z,91.10
2023-03-10T17:41:46.209Z,91.10
2023-03-10T17:44:12.996Z,91.10
2023-03-10T17:46:41.048Z,91.10
2023-03-10T17:49:09.111Z,91.10
2023-03-10T17:51:35.932Z,91.10
2023-03-10T17:54:03.097Z,91.20
2023-03-10T17:56:30.191Z,91.10
2023-03-10T17:58:58.153Z,91.10
2023-03-10T18:01:27.654Z,91.10
2023-03-10T18:03:56.294Z,91.10
2023-03-10T18:06:25.688Z,91.10
2023-03-10T18:08:56.267Z,91.10
2023-03-10T18:11:23.727Z,91.10
2023-03-10T18:13:50.513Z,91.10
2023-03-10T18:16:26.264Z,91.10
2023-03-10T18:18:53.699Z,91.10
2023-03-10T18:21:21.632Z,91.10
2023-03-10T18:23:49.088Z,91.10
2023-03-10T18:26:19.415Z,91.00
2023-03-10T18:28:46.946Z,91.00
2023-03-10T18:31:25.986Z,91.00
2023-03-10T18:33:52.897Z,91.00
2023-03-10T18:36:21.386Z,91.00
2023-03-10T18:38:48.699Z,91.00
2023-03-10T18:41:21.833Z,91.00
2023-03-10T18:43:48.560Z,91.10
2023-03-10T18:46:15.507Z,91.00
2023-03-10T18:48:42.315Z,91.10
2023-03-10T18:51:10.421Z,91.10
2023-03-10T18:53:37.782Z,91.20
2023-03-10T18:56:07.733Z,91.20
2023-03-10T18:58:35.030Z,91.60
2023-03-10T19:01:01.764Z,91.20
2023-03-10T19:03:29.904Z,91.20
2023-03-10T19:05:57.160Z,91.20
2023-03-10T19:08:27.322Z,91.20
2023-03-10T19:10:59.068Z,91.20
2023-03-10T19:13:27.504Z,91.20
2023-03-10T19:15:54.656Z,91.20
2023-03-10T19:18:21.943Z,91.10
2023-03-10T19:20:51.305Z,91.10
2023-03-10T19:23:18.230Z,91.10
2023-03-10T19:25:47.945Z,91.10
2023-03-10T19:28:14.828Z,91.10
2023-03-10T19:30:44.970Z,91.10
2023-03-10T19:33:17.418Z,91.10
2023-03-10T19:35:44.714Z,91.10
2023-03-10T19:38:11.434Z,91.10
2023-03-10T19:40:41.083Z,91.00
2023-03-10T19:43:08.065Z,91.00
2023-03-10T19:45:34.816Z,91.00
2023-03-10T19:48:01.657Z,91.00
2023-03-10T19:50:28.607Z,91.00
2023-03-10T19:52:55.453Z,91.00
2023-03-10T19:55:25.216Z,91.40
2023-03-10T19:57:54.627Z,91.00
2023-03-10T20:00:25.498Z,91.10
2023-03-10T20:02:53.992Z,91.00
2023-03-10T20:05:21.932Z,91.00
2023-03-10T20:07:48.972Z,91.00
2023-03-10T20:10:18.124Z,91.00
2023-03-10T20:12:48.004Z,91.00
2023-03-10T20:15:18.206Z,91.00
2023-03-10T20:17:45.057Z,91.00
2023-03-10T20:20:15.070Z,90.90
2023-03-10T20:22:43.738Z,90.90
2023-03-10T20:25:12.689Z,90.90
2023-03-10T20:27:39.636Z,91.00
2023-03-10T20:30:14.205Z,90.90
2023-03-10T20:32:41.204Z,90.90
2023-03-10T20:35:08.384Z,90.90
2023-03-10T20:37:35.979Z,90.90
2023-03-10T20:40:07.125Z,90.90
2023-03-10T20:42:34.432Z,90.90
2023-03-10T20:45:02.439Z,90.90
2023-03-10T20:47:29.393Z,91.20
2023-03-10T20:49:56.671Z,90.90
2023-03-10T20:52:23.542Z,90.80
2023-03-10T20:54:53.587Z,90.80
2023-03-10T20:57:20.407Z,90.80
2023-03-10T20:59:47.187Z,90.80
2023-03-10T21:02:15.671Z,90.80
2023-03-10T21:04:43.100Z,90.80
2023-03-10T21:07:10.434Z,90.70
2023-03-10T21:09:37.309Z,90.70
2023-03-10T21:12:04.496Z,90.70
2023-03-10T21:14:31.321Z,90.70
2023-03-10T21:17:03.077Z,90.60
2023-03-10T21:19:30.049Z,90.60
2023-03-10T21:21:56.808Z,91.00
2023-03-10T21:24:23.654Z,90.60
2023-03-10T21:26:50.381Z,90.50
2023-03-10T21:29:17.266Z,90.50
2023-03-10T21:31:44.359Z,90.50
2023-03-10T21:34:11.246Z,90.50
2023-03-10T21:36:38.127Z,90.50
2023-03-10T21:39:05.537Z,90.50
2023-03-10T21:41:32.262Z,90.50
2023-03-10T21:43:59.818Z,90.40
2023-03-10T21:46:27.320Z,90.40
2023-03-10T21:48:57.094Z,90.70
2023-03-10T21:51:25.651Z,90.30
2023-03-10T21:53:54.352Z,90.30
2023-03-10T21:56:22.720Z,90.20
2023-03-10T21:58:49.966Z,90.20
2023-03-10T22:01:17.743Z,90.20
2023-03-10T22:03:47.069Z,90.20
2023-03-10T22:06:13.833Z,90.10
2023-03-10T22:08:40.834Z,90.20
2023-03-10T22:11:09.397Z,90.10
2023-03-10T22:13:37.880Z,90.10
2023-03-10T22:16:06.207Z,90.00
2023-03-10T22:18:33.710Z,90.00
2023-03-10T22:21:00.527Z,90.00
2023-03-10T22:23:27.635Z,90.00
2023-03-10T22:25:57.710Z,90.00
2023-03-10T22:28:24.530Z,89.90
2023-03-10T22:30:51.469Z,89.90
2023-03-10T22:33:18.447Z,89.80
2023-03-10T22:35:51.513Z,89.80
2023-03-10T22:38:20.276Z,89.70
2023-03-10T22:40:47.683Z,89.60
2023-03-10T22:43:14.909Z,89.50
2023-03-10T22:45:41.912Z,89.50
2023-03-10T22:48:08.802Z,89.50
2023-03-10T22:50:38.282Z,89.30
2023-03-10T22:53:08.307Z,89.40
2023-03-10T22:55:38.066Z,89.20
2023-03-10T22:58:06.945Z,89.10
2023-03-10T23:00:34.439Z,89.00
2023-03-10T23:03:01.634Z,88.70
2023-03-10T23:05:28.591Z,88.60
2023-03-10T23:07:59.185Z,88.60
2023-03-10T23:10:34.482Z,88.50
2023-03-10T23:13:08.238Z,88.50
2023-03-10T23:15:37.493Z,88.50
2023-03-10T23:18:05.600Z,88.50
2023-03-10T23:20:38.704Z,88.40
2023-03-10T23:23:08.137Z,88.30
2023-03-10T23:25:41.523Z,88.30
2023-03-10T23:28:09.978Z,88.30
2023-03-10T23:30:38.666Z,88.20
2023-03-10T23:33:09.228Z,88.20
2023-03-10T23:35:36.595Z,87.90
2023-03-10T23:38:05.507Z,87.80
2023-03-10T23:40:34.220Z,87.80
2023-03-10T23:43:02.981Z,87.80
2023-03-10T23:45:31.898Z,87.60
2023-03-10T23:48:01.406Z,88.40
2023-03-10T23:50:33.612Z,87.60
2023-03-10T23:53:00.837Z,87.50
2023-03-10T23:55:31.451Z,87.50
2023-03-10T23:57:58.451Z,87.50
